sensor_id;sensor_type;location;lat;lon;timestamp;temperature;humidity
2465;DHT22;1244;54.326;10.074;2023-03-29T00:01:23;4.70;99.90
2465;DHT22;1244;54.326;10.074;2023-03-29T00:03:50;4.70;99.90
2465;DHT22;1244;54.326;10.074;2023-03-29T00:06:16;4.70;99.90
2465;DHT22;1244;54.326;10.074;2023-03-29T00:08:47;4.60;99.90
2465;DHT22;1244;54.326;10.074;2023-03-29T00:11:16;4.70;99.90
2465;DHT22;1244;54.326;10.074;2023-03-29T00:13:49;4.60;99.90
2465;DHT22;1244;54.326;10.074;2023-03-29T00:16:14;4.60;99.90
2465;DHT22;1244;54.326;10.074;2023-03-29T00:18:40;4.50;99.90
2465;DHT22;1244;54.326;10.074;2023-03-29T00:21:06;4.40;99.90
2465;DHT22;1244;54.326;10.074;2023-03-29T00:23:31;4.40;99.90
2465;DHT22;1244;54.326;10.074;2023-03-29T00:25:57;4.30;99.90
2465;DHT22;1244;54.326;10.074;2023-03-29T00:28:31;4.20;99.90
2465;DHT22;1244;54.326;10.074;2023-03-29T00:31:08;4.20;99.90
2465;DHT22;1244;54.326;10.074;2023-03-29T00:33:35;4.10;99.90
2465;DHT22;1244;54.326;10.074;2023-03-29T00:36:01;4.00;99.90
2465;DHT22;1244;54.326;10.074;2023-03-29T00:38:44;4.00;99.90
2465;DHT22;1244;54.326;10.074;2023-03-29T00:41:10;4.00;99.90
2465;DHT22;1244;54.326;10.074;2023-03-29T00:43:56;4.00;99.90
2465;DHT22;1244;54.326;10.074;2023-03-29T00:46:32;4.00;99.90
2465;DHT22;1244;54.326;10.074;2023-03-29T00:49:18;4.00;99.90
2465;DHT22;1244;54.326;10.074;2023-03-29T00:51:50;4.00;99.90
2465;DHT22;1244;54.326;10.074;2023-03-29T00:54:16;3.80;99.90
2465;DHT22;1244;54.326;10.074;2023-03-29T00:57:01;3.80;99.90
2465;DHT22;1244;54.326;10.074;2023-03-29T00:59:29;3.60;99.90
2465;DHT22;1244;54.326;10.074;2023-03-29T01:01:59;3.70;99.90
2465;DHT22;1244;54.326;10.074;2023-03-29T01:07:19;3.40;99.90
2465;DHT22;1244;54.326;10.074;2023-03-29T01:09:54;3.40;99.90
2465;DHT22;1244;54.326;10.074;2023-03-29T01:12:23;3.30;99.90
2465;DHT22;1244;54.326;10.074;2023-03-29T01:15:05;3.30;99.90
2465;DHT22;1244;54.326;10.074;2023-03-29T01:17:33;3.30;99.90
2465;DHT22;1244;54.326;10.074;2023-03-29T01:20:08;3.20;99.90
2465;DHT22;1244;54.326;10.074;2023-03-29T01:23:20;3.30;99.90
2465;DHT22;1244;54.326;10.074;2023-03-29T01:28:56;3.20;99.90
2465;DHT22;1244;54.326;10.074;2023-03-29T01:31:33;3.20;99.90
2465;DHT22;1244;54.326;10.074;2023-03-29T01:37:10;3.10;99.90
2465;DHT22;1244;54.326;10.074;2023-03-29T01:39:40;3.10;99.90
2465;DHT22;1244;54.326;10.074;2023-03-29T01:44:38;3.20;99.90
2465;DHT22;1244;54.326;10.074;2023-03-29T01:47:22;3.00;99.90
2465;DHT22;1244;54.326;10.074;2023-03-29T01:55:51;3.20;99.90
2465;DHT22;1244;54.326;10.074;2023-03-29T01:58:17;3.20;99.90
2465;DHT22;1244;54.326;10.074;2023-03-29T02:00:47;3.20;99.90
2465;DHT22;1244;54.326;10.074;2023-03-29T02:03:25;3.20;99.90
2465;DHT22;1244;54.326;10.074;2023-03-29T02:05:56;3.20;99.90
2465;DHT22;1244;54.326;10.074;2023-03-29T02:08:24;3.30;99.90
2465;DHT22;1244;54.326;10.074;2023-03-29T02:10:51;3.30;99.90
2465;DHT22;1244;54.326;10.074;2023-03-29T02:13:19;3.30;99.90
2465;DHT22;1244;54.326;10.074;2023-03-29T02:15:45;3.30;99.90
2465;DHT22;1244;54.326;10.074;2023-03-29T02:18:13;3.30;99.90
2465;DHT22;1244;54.326;10.074;2023-03-29T02:20:51;3.30;99.90
2465;DHT22;1244;54.326;10.074;2023-03-29T02:23:25;3.30;99.90
2465;DHT22;1244;54.326;10.074;2023-03-29T02:25:52;3.30;99.90
2465;DHT22;1244;54.326;10.074;2023-03-29T02:28:19;3.40;99.90
2465;DHT22;1244;54.326;10.074;2023-03-29T02:31:01;3.30;99.90
2465;DHT22;1244;54.326;10.074;2023-03-29T02:33:47;3.30;99.90
2465;DHT22;1244;54.326;10.074;2023-03-29T02:36:27;3.30;99.90
2465;DHT22;1244;54.326;10.074;2023-03-29T02:39:01;3.30;99.90
2465;DHT22;1244;54.326;10.074;2023-03-29T02:41:29;3.30;99.90
2465;DHT22;1244;54.326;10.074;2023-03-29T02:43:55;3.30;99.90
2465;DHT22;1244;54.326;10.074;2023-03-29T02:46:24;3.30;99.90
2465;DHT22;1244;54.326;10.074;2023-03-29T02:49:06;3.30;99.90
2465;DHT22;1244;54.326;10.074;2023-03-29T02:51:33;3.30;99.90
2465;DHT22;1244;54.326;10.074;2023-03-29T02:54:14;3.20;99.90
2465;DHT22;1244;54.326;10.074;2023-03-29T02:57:03;3.30;99.90
2465;DHT22;1244;54.326;10.074;2023-03-29T02:59:31;3.30;99.90
2465;DHT22;1244;54.326;10.074;2023-03-29T03:01:58;3.20;99.90
2465;DHT22;1244;54.326;10.074;2023-03-29T03:04:23;3.20;99.90
2465;DHT22;1244;54.326;10.074;2023-03-29T03:06:49;3.30;99.90
2465;DHT22;1244;54.326;10.074;2023-03-29T03:11:57;3.30;99.90
2465;DHT22;1244;54.326;10.074;2023-03-29T03:14:22;3.30;99.90
2465;DHT22;1244;54.326;10.074;2023-03-29T03:16:48;3.30;99.90
2465;DHT22;1244;54.326;10.074;2023-03-29T03:19:14;3.30;99.90
2465;DHT22;1244;54.326;10.074;2023-03-29T03:21:49;3.30;99.90
2465;DHT22;1244;54.326;10.074;2023-03-29T03:24:15;3.20;99.90
2465;DHT22;1244;54.326;10.074;2023-03-29T03:26:42;3.20;99.90
2465;DHT22;1244;54.326;10.074;2023-03-29T03:29:12;3.30;99.90
2465;DHT22;1244;54.326;10.074;2023-03-29T03:31:40;3.30;99.90
2465;DHT22;1244;54.326;10.074;2023-03-29T03:34:06;3.30;99.90
2465;DHT22;1244;54.326;10.074;2023-03-29T03:36:47;3.30;99.90
2465;DHT22;1244;54.326;10.074;2023-03-29T03:39:13;3.30;99.90
2465;DHT22;1244;54.326;10.074;2023-03-29T03:41:39;3.30;99.90
2465;DHT22;1244;54.326;10.074;2023-03-29T03:44:04;3.30;99.90
2465;DHT22;1244;54.326;10.074;2023-03-29T03:46:30;3.30;99.90
2465;DHT22;1244;54.326;10.074;2023-03-29T03:48:56;3.30;99.90
2465;DHT22;1244;54.326;10.074;2023-03-29T03:53:52;3.30;99.90
2465;DHT22;1244;54.326;10.074;2023-03-29T03:56:18;3.30;99.90
2465;DHT22;1244;54.326;10.074;2023-03-29T03:58:44;3.30;99.90
2465;DHT22;1244;54.326;10.074;2023-03-29T04:01:10;3.30;99.90
2465;DHT22;1244;54.326;10.074;2023-03-29T04:03:36;3.30;99.90
2465;DHT22;1244;54.326;10.074;2023-03-29T04:06:02;3.30;99.90
2465;DHT22;1244;54.326;10.074;2023-03-29T04:10:55;3.20;99.90
2465;DHT22;1244;54.326;10.074;2023-03-29T04:13:28;3.30;99.90
2465;DHT22;1244;54.326;10.074;2023-03-29T04:15:54;3.30;99.90
2465;DHT22;1244;54.326;10.074;2023-03-29T04:18:21;3.20;99.90
2465;DHT22;1244;54.326;10.074;2023-03-29T04:20:54;3.20;99.90
2465;DHT22;1244;54.326;10.074;2023-03-29T04:23:19;3.30;99.90
2465;DHT22;1244;54.326;10.074;2023-03-29T04:25:45;3.30;99.90
2465;DHT22;1244;54.326;10.074;2023-03-29T04:28:11;3.30;99.90
2465;DHT22;1244;54.326;10.074;2023-03-29T04:30:37;3.30;99.90
2465;DHT22;1244;54.326;10.074;2023-03-29T04:33:02;3.30;99.90
2465;DHT22;1244;54.326;10.074;2023-03-29T04:38:02;3.20;99.90
2465;DHT22;1244;54.326;10.074;2023-03-29T04:40:28;3.30;99.90
2465;DHT22;1244;54.326;10.074;2023-03-29T04:42:55;3.30;99.90
2465;DHT22;1244;54.326;10.074;2023-03-29T04:45:20;3.30;99.90
2465;DHT22;1244;54.326;10.074;2023-03-29T04:47:46;3.30;99.90
2465;DHT22;1244;54.326;10.074;2023-03-29T04:50:24;3.30;99.90
2465;DHT22;1244;54.326;10.074;2023-03-29T04:52:50;3.30;99.90
2465;DHT22;1244;54.326;10.074;2023-03-29T04:55:15;3.40;99.90
2465;DHT22;1244;54.326;10.074;2023-03-29T04:57:41;3.40;99.90
2465;DHT22;1244;54.326;10.074;2023-03-29T05:00:09;3.40;99.90
2465;DHT22;1244;54.326;10.074;2023-03-29T05:05:06;3.40;99.90
2465;DHT22;1244;54.326;10.074;2023-03-29T05:07:32;3.40;99.90
2465;DHT22;1244;54.326;10.074;2023-03-29T05:09:58;3.40;99.90
2465;DHT22;1244;54.326;10.074;2023-03-29T05:12:24;3.40;99.90
2465;DHT22;1244;54.326;10.074;2023-03-29T05:14:49;3.40;99.90
2465;DHT22;1244;54.326;10.074;2023-03-29T05:17:15;3.40;99.90
2465;DHT22;1244;54.326;10.074;2023-03-29T05:22:12;3.40;99.90
2465;DHT22;1244;54.326;10.074;2023-03-29T05:24:38;3.40;99.90
2465;DHT22;1244;54.326;10.074;2023-03-29T05:27:19;3.40;99.90
2465;DHT22;1244;54.326;10.074;2023-03-29T05:30:05;3.40;99.90
2465;DHT22;1244;54.326;10.074;2023-03-29T05:32:30;3.40;99.90
2465;DHT22;1244;54.326;10.074;2023-03-29T05:34:56;3.40;99.90
2465;DHT22;1244;54.326;10.074;2023-03-29T05:37:21;3.40;99.90
2465;DHT22;1244;54.326;10.074;2023-03-29T05:39:47;3.40;99.90
2465;DHT22;1244;54.326;10.074;2023-03-29T05:42:21;3.40;99.90
2465;DHT22;1244;54.326;10.074;2023-03-29T05:44:53;3.40;99.90
2465;DHT22;1244;54.326;10.074;2023-03-29T05:47:19;3.50;99.90
2465;DHT22;1244;54.326;10.074;2023-03-29T05:49:44;3.40;99.90
2465;DHT22;1244;54.326;10.074;2023-03-29T05:52:11;3.40;99.90
2465;DHT22;1244;54.326;10.074;2023-03-29T05:54:38;3.50;99.90
2465;DHT22;1244;54.326;10.074;2023-03-29T05:57:18;3.50;99.90
2465;DHT22;1244;54.326;10.074;2023-03-29T05:59:47;3.50;99.90
2465;DHT22;1244;54.326;10.074;2023-03-29T06:02:18;3.50;99.90
2465;DHT22;1244;54.326;10.074;2023-03-29T06:04:44;3.50;99.90
2465;DHT22;1244;54.326;10.074;2023-03-29T06:07:10;3.50;99.90
2465;DHT22;1244;54.326;10.074;2023-03-29T06:09:37;3.50;99.90
2465;DHT22;1244;54.326;10.074;2023-03-29T06:12:11;3.50;99.90
2465;DHT22;1244;54.326;10.074;2023-03-29T06:14:38;3.60;99.90
2465;DHT22;1244;54.326;10.074;2023-03-29T06:17:04;3.60;99.90
2465;DHT22;1244;54.326;10.074;2023-03-29T06:19:30;3.60;99.90
2465;DHT22;1244;54.326;10.074;2023-03-29T06:22:02;3.60;99.90
2465;DHT22;1244;54.326;10.074;2023-03-29T06:24:29;3.70;99.90
2465;DHT22;1244;54.326;10.074;2023-03-29T06:26:55;3.80;99.90
2465;DHT22;1244;54.326;10.074;2023-03-29T06:29:25;3.80;99.90
2465;DHT22;1244;54.326;10.074;2023-03-29T06:31:52;3.90;99.90
2465;DHT22;1244;54.326;10.074;2023-03-29T06:34:17;3.90;99.90
2465;DHT22;1244;54.326;10.074;2023-03-29T06:36:43;3.90;99.90
2465;DHT22;1244;54.326;10.074;2023-03-29T06:39:09;3.90;99.90
2465;DHT22;1244;54.326;10.074;2023-03-29T06:41:35;3.90;99.90
2465;DHT22;1244;54.326;10.074;2023-03-29T06:44:02;3.90;99.90
2465;DHT22;1244;54.326;10.074;2023-03-29T06:46:28;3.90;99.90
2465;DHT22;1244;54.326;10.074;2023-03-29T06:48:54;3.90;99.90
2465;DHT22;1244;54.326;10.074;2023-03-29T06:51:19;3.90;99.90
2465;DHT22;1244;54.326;10.074;2023-03-29T06:53:52;4.00;99.90
2465;DHT22;1244;54.326;10.074;2023-03-29T06:56:17;4.00;99.90
2465;DHT22;1244;54.326;10.074;2023-03-29T06:58:43;4.00;99.90
2465;DHT22;1244;54.326;10.074;2023-03-29T07:01:09;4.10;99.90
2465;DHT22;1244;54.326;10.074;2023-03-29T07:03:35;4.10;99.90
2465;DHT22;1244;54.326;10.074;2023-03-29T07:06:06;4.20;99.90
2465;DHT22;1244;54.326;10.074;2023-03-29T07:08:47;4.30;99.90
2465;DHT22;1244;54.326;10.074;2023-03-29T07:11:16;4.30;99.90
2465;DHT22;1244;54.326;10.074;2023-03-29T07:13:43;4.30;99.90
2465;DHT22;1244;54.326;10.074;2023-03-29T07:16:10;4.30;99.90
2465;DHT22;1244;54.326;10.074;2023-03-29T07:18:41;4.40;99.90
2465;DHT22;1244;54.326;10.074;2023-03-29T07:21:08;4.40;99.90
2465;DHT22;1244;54.326;10.074;2023-03-29T07:23:35;4.40;99.90
2465;DHT22;1244;54.326;10.074;2023-03-29T07:26:02;4.40;99.90
2465;DHT22;1244;54.326;10.074;2023-03-29T07:28:29;4.40;99.90
2465;DHT22;1244;54.326;10.074;2023-03-29T07:31:13;4.50;99.90
2465;DHT22;1244;54.326;10.074;2023-03-29T07:33:39;4.50;99.90
2465;DHT22;1244;54.326;10.074;2023-03-29T07:36:05;4.50;99.90
2465;DHT22;1244;54.326;10.074;2023-03-29T07:38:31;4.60;99.90
2465;DHT22;1244;54.326;10.074;2023-03-29T07:40:58;4.50;99.90
2465;DHT22;1244;54.326;10.074;2023-03-29T07:43:23;4.50;99.90
2465;DHT22;1244;54.326;10.074;2023-03-29T07:45:52;4.50;99.90
2465;DHT22;1244;54.326;10.074;2023-03-29T07:48:18;4.50;99.90
2465;DHT22;1244;54.326;10.074;2023-03-29T07:50:47;4.50;99.90
2465;DHT22;1244;54.326;10.074;2023-03-29T07:53:12;4.60;99.90
2465;DHT22;1244;54.326;10.074;2023-03-29T07:55:39;4.60;99.90
2465;DHT22;1244;54.326;10.074;2023-03-29T07:58:11;4.60;99.90
2465;DHT22;1244;54.326;10.074;2023-03-29T08:00:38;4.70;99.90
2465;DHT22;1244;54.326;10.074;2023-03-29T08:03:04;4.70;99.90
2465;DHT22;1244;54.326;10.074;2023-03-29T08:05:29;4.70;99.90
2465;DHT22;1244;54.326;10.074;2023-03-29T08:07:56;4.70;99.90
2465;DHT22;1244;54.326;10.074;2023-03-29T08:10:21;4.80;99.90
2465;DHT22;1244;54.326;10.074;2023-03-29T08:12:49;4.80;99.90
2465;DHT22;1244;54.326;10.074;2023-03-29T08:15:15;4.90;99.90
2465;DHT22;1244;54.326;10.074;2023-03-29T08:17:41;5.00;99.90
2465;DHT22;1244;54.326;10.074;2023-03-29T08:20:09;5.10;99.90
2465;DHT22;1244;54.326;10.074;2023-03-29T08:22:36;5.10;99.90
2465;DHT22;1244;54.326;10.074;2023-03-29T08:25:02;5.10;99.90
2465;DHT22;1244;54.326;10.074;2023-03-29T08:27:28;5.10;99.90
2465;DHT22;1244;54.326;10.074;2023-03-29T08:29:54;5.10;99.90
2465;DHT22;1244;54.326;10.074;2023-03-29T08:32:20;5.10;99.90
2465;DHT22;1244;54.326;10.074;2023-03-29T08:34:45;5.10;99.90
2465;DHT22;1244;54.326;10.074;2023-03-29T08:37:11;5.10;99.90
2465;DHT22;1244;54.326;10.074;2023-03-29T08:39:37;5.20;99.90
2465;DHT22;1244;54.326;10.074;2023-03-29T08:48:26;5.30;99.90
2465;DHT22;1244;54.326;10.074;2023-03-29T08:50:57;5.30;99.90
2465;DHT22;1244;54.326;10.074;2023-03-29T08:53:30;5.20;99.90
2465;DHT22;1244;54.326;10.074;2023-03-29T08:55:59;5.20;99.90
2465;DHT22;1244;54.326;10.074;2023-03-29T08:58:30;5.40;99.90
2465;DHT22;1244;54.326;10.074;2023-03-29T09:00:58;5.40;99.90
2465;DHT22;1244;54.326;10.074;2023-03-29T09:06:12;5.60;99.90
2465;DHT22;1244;54.326;10.074;2023-03-29T09:08:46;5.50;99.90
2465;DHT22;1244;54.326;10.074;2023-03-29T09:13:44;5.50;99.90
2465;DHT22;1244;54.326;10.074;2023-03-29T09:21:55;5.30;99.90
2465;DHT22;1244;54.326;10.074;2023-03-29T09:27:09;5.30;99.90
2465;DHT22;1244;54.326;10.074;2023-03-29T09:29:51;5.30;99.90
2465;DHT22;1244;54.326;10.074;2023-03-29T09:32:24;5.20;99.90
2465;DHT22;1244;54.326;10.074;2023-03-29T09:35:03;5.20;99.90
2465;DHT22;1244;54.326;10.074;2023-03-29T09:37:34;5.20;99.90
2465;DHT22;1244;54.326;10.074;2023-03-29T09:40:05;5.30;99.90
2465;DHT22;1244;54.326;10.074;2023-03-29T09:42:35;5.10;99.90
2465;DHT22;1244;54.326;10.074;2023-03-29T09:45:04;5.30;99.90
2465;DHT22;1244;54.326;10.074;2023-03-29T09:47:41;5.40;99.90
2465;DHT22;1244;54.326;10.074;2023-03-29T09:50:17;5.40;99.90
2465;DHT22;1244;54.326;10.074;2023-03-29T09:52:53;5.40;99.90
2465;DHT22;1244;54.326;10.074;2023-03-29T09:55:21;5.30;99.90
2465;DHT22;1244;54.326;10.074;2023-03-29T09:57:48;5.50;99.90
2465;DHT22;1244;54.326;10.074;2023-03-29T10:00:16;5.60;99.90
2465;DHT22;1244;54.326;10.074;2023-03-29T10:02:50;5.50;99.90
2465;DHT22;1244;54.326;10.074;2023-03-29T10:05:17;5.50;99.90
2465;DHT22;1244;54.326;10.074;2023-03-29T10:07:51;5.70;99.90
2465;DHT22;1244;54.326;10.074;2023-03-29T10:10:26;5.80;99.90
2465;DHT22;1244;54.326;10.074;2023-03-29T10:12:55;5.70;99.90
2465;DHT22;1244;54.326;10.074;2023-03-29T10:15:22;5.70;99.90
2465;DHT22;1244;54.326;10.074;2023-03-29T10:17:47;5.70;99.90
2465;DHT22;1244;54.326;10.074;2023-03-29T10:20:17;5.80;99.90
2465;DHT22;1244;54.326;10.074;2023-03-29T10:22:57;5.80;99.90
2465;DHT22;1244;54.326;10.074;2023-03-29T10:25:31;5.90;99.90
2465;DHT22;1244;54.326;10.074;2023-03-29T10:28:06;6.00;99.90
2465;DHT22;1244;54.326;10.074;2023-03-29T10:30:36;6.00;99.90
2465;DHT22;1244;54.326;10.074;2023-03-29T10:33:02;6.10;99.90
2465;DHT22;1244;54.326;10.074;2023-03-29T10:35:53;6.10;99.90
2465;DHT22;1244;54.326;10.074;2023-03-29T10:38:22;6.10;99.90
2465;DHT22;1244;54.326;10.074;2023-03-29T10:40:50;6.30;99.90
2465;DHT22;1244;54.326;10.074;2023-03-29T10:45:43;6.30;99.90
2465;DHT22;1244;54.326;10.074;2023-03-29T10:48:13;6.20;99.90
2465;DHT22;1244;54.326;10.074;2023-03-29T10:50:39;6.20;99.90
2465;DHT22;1244;54.326;10.074;2023-03-29T11:05:22;6.10;99.90
2465;DHT22;1244;54.326;10.074;2023-03-29T11:08:09;6.20;99.90
2465;DHT22;1244;54.326;10.074;2023-03-29T11:10:52;6.10;99.90
2465;DHT22;1244;54.326;10.074;2023-03-29T11:13:39;6.20;99.90
2465;DHT22;1244;54.326;10.074;2023-03-29T11:30:33;6.70;99.90
2465;DHT22;1244;54.326;10.074;2023-03-29T11:33:29;6.90;99.90
2465;DHT22;1244;54.326;10.074;2023-03-29T11:41:04;6.80;99.90
2465;DHT22;1244;54.326;10.074;2023-03-29T11:43:55;6.80;99.90
2465;DHT22;1244;54.326;10.074;2023-03-29T11:49:17;6.90;99.90
2465;DHT22;1244;54.326;10.074;2023-03-29T11:51:53;6.90;99.90
2465;DHT22;1244;54.326;10.074;2023-03-29T11:54:39;6.90;99.90
2465;DHT22;1244;54.326;10.074;2023-03-29T12:00:23;6.90;99.90
2465;DHT22;1244;54.326;10.074;2023-03-29T12:03:20;6.90;99.90
2465;DHT22;1244;54.326;10.074;2023-03-29T12:08:32;6.90;99.90
2465;DHT22;1244;54.326;10.074;2023-03-29T12:13:52;6.90;99.90
2465;DHT22;1244;54.326;10.074;2023-03-29T12:19:01;6.90;99.90
2465;DHT22;1244;54.326;10.074;2023-03-29T12:21:28;7.00;99.90
2465;DHT22;1244;54.326;10.074;2023-03-29T12:23:54;7.10;99.90
2465;DHT22;1244;54.326;10.074;2023-03-29T12:26:52;7.10;99.90
2465;DHT22;1244;54.326;10.074;2023-03-29T12:35:00;7.30;99.90
2465;DHT22;1244;54.326;10.074;2023-03-29T12:37:41;7.40;99.90
2465;DHT22;1244;54.326;10.074;2023-03-29T12:43:00;7.40;99.90
2465;DHT22;1244;54.326;10.074;2023-03-29T12:45:45;7.40;99.90
2465;DHT22;1244;54.326;10.074;2023-03-29T12:48:27;7.50;99.90
2465;DHT22;1244;54.326;10.074;2023-03-29T12:51:02;7.60;99.90
2465;DHT22;1244;54.326;10.074;2023-03-29T12:58:41;7.50;99.90
2465;DHT22;1244;54.326;10.074;2023-03-29T13:01:28;7.50;99.90
2465;DHT22;1244;54.326;10.074;2023-03-29T13:04:16;7.50;99.90
2465;DHT22;1244;54.326;10.074;2023-03-29T13:06:59;7.50;99.90
2465;DHT22;1244;54.326;10.074;2023-03-29T13:09:30;7.40;99.90
2465;DHT22;1244;54.326;10.074;2023-03-29T13:14:42;7.50;99.90
2465;DHT22;1244;54.326;10.074;2023-03-29T13:17:17;7.40;99.90
2465;DHT22;1244;54.326;10.074;2023-03-29T13:20:06;7.50;99.90
2465;DHT22;1244;54.326;10.074;2023-03-29T13:31:51;7.50;99.90
2465;DHT22;1244;54.326;10.074;2023-03-29T13:42:59;7.60;99.90
2465;DHT22;1244;54.326;10.074;2023-03-29T13:45:28;7.70;99.90
2465;DHT22;1244;54.326;10.074;2023-03-29T13:50:54;7.80;99.90
2465;DHT22;1244;54.326;10.074;2023-03-29T13:56:35;7.80;99.90
2465;DHT22;1244;54.326;10.074;2023-03-29T13:59:16;7.70;99.90
2465;DHT22;1244;54.326;10.074;2023-03-29T14:01:56;7.80;99.90
2465;DHT22;1244;54.326;10.074;2023-03-29T14:04:31;7.70;99.90
2465;DHT22;1244;54.326;10.074;2023-03-29T14:07:00;7.70;99.90
2465;DHT22;1244;54.326;10.074;2023-03-29T14:09:29;7.80;99.90
2465;DHT22;1244;54.326;10.074;2023-03-29T14:11:58;7.80;99.90
2465;DHT22;1244;54.326;10.074;2023-03-29T14:14:29;7.80;99.90
2465;DHT22;1244;54.326;10.074;2023-03-29T14:16:56;7.90;99.90
2465;DHT22;1244;54.326;10.074;2023-03-29T14:19:30;7.90;99.90
2465;DHT22;1244;54.326;10.074;2023-03-29T14:21:57;8.00;99.90
2465;DHT22;1244;54.326;10.074;2023-03-29T14:24:33;8.00;99.90
2465;DHT22;1244;54.326;10.074;2023-03-29T14:27:04;8.00;99.90
2465;DHT22;1244;54.326;10.074;2023-03-29T14:29:31;8.10;99.90
2465;DHT22;1244;54.326;10.074;2023-03-29T14:32:10;8.10;99.90
2465;DHT22;1244;54.326;10.074;2023-03-29T14:34:37;8.00;99.90
2465;DHT22;1244;54.326;10.074;2023-03-29T14:39:41;7.90;99.90
2465;DHT22;1244;54.326;10.074;2023-03-29T14:42:19;8.00;99.90
2465;DHT22;1244;54.326;10.074;2023-03-29T14:44:49;7.80;99.90
2465;DHT22;1244;54.326;10.074;2023-03-29T14:47:29;7.90;99.90
2465;DHT22;1244;54.326;10.074;2023-03-29T14:50:01;7.80;99.90
2465;DHT22;1244;54.326;10.074;2023-03-29T14:52:29;7.90;99.90
2465;DHT22;1244;54.326;10.074;2023-03-29T14:54:57;8.00;99.90
2465;DHT22;1244;54.326;10.074;2023-03-29T14:57:25;8.10;99.90
2465;DHT22;1244;54.326;10.074;2023-03-29T14:59:57;8.10;99.90
2465;DHT22;1244;54.326;10.074;2023-03-29T15:02:28;8.30;99.90
2465;DHT22;1244;54.326;10.074;2023-03-29T15:04:59;8.20;99.90
2465;DHT22;1244;54.326;10.074;2023-03-29T15:07:30;8.30;99.90
2465;DHT22;1244;54.326;10.074;2023-03-29T15:10:00;8.30;99.90
2465;DHT22;1244;54.326;10.074;2023-03-29T15:12:40;8.20;99.90
2465;DHT22;1244;54.326;10.074;2023-03-29T15:15:09;8.10;99.90
2465;DHT22;1244;54.326;10.074;2023-03-29T15:17:41;8.10;99.90
2465;DHT22;1244;54.326;10.074;2023-03-29T15:20:30;8.10;99.90
2465;DHT22;1244;54.326;10.074;2023-03-29T15:23:02;8.10;99.90
2465;DHT22;1244;54.326;10.074;2023-03-29T15:25:44;8.10;99.90
2465;DHT22;1244;54.326;10.074;2023-03-29T15:28:34;8.00;99.90
2465;DHT22;1244;54.326;10.074;2023-03-29T15:31:09;8.00;99.90
2465;DHT22;1244;54.326;10.074;2023-03-29T15:33:37;8.00;99.90
2465;DHT22;1244;54.326;10.074;2023-03-29T15:36:04;8.10;99.90
2465;DHT22;1244;54.326;10.074;2023-03-29T15:38:30;8.10;99.90
2465;DHT22;1244;54.326;10.074;2023-03-29T15:43:29;8.10;99.90
2465;DHT22;1244;54.326;10.074;2023-03-29T15:45:56;8.00;99.90
2465;DHT22;1244;54.326;10.074;2023-03-29T15:48:24;8.00;99.90
2465;DHT22;1244;54.326;10.074;2023-03-29T15:50:51;8.00;99.90
2465;DHT22;1244;54.326;10.074;2023-03-29T15:53:26;8.00;99.90
2465;DHT22;1244;54.326;10.074;2023-03-29T15:55:58;8.00;99.90
2465;DHT22;1244;54.326;10.074;2023-03-29T15:58:27;8.00;99.90
2465;DHT22;1244;54.326;10.074;2023-03-29T16:01:01;8.00;99.90
2465;DHT22;1244;54.326;10.074;2023-03-29T16:03:44;8.00;99.90
2465;DHT22;1244;54.326;10.074;2023-03-29T16:06:10;8.10;99.90
2465;DHT22;1244;54.326;10.074;2023-03-29T16:08:36;8.10;99.90
2465;DHT22;1244;54.326;10.074;2023-03-29T16:11:02;8.00;99.90
2465;DHT22;1244;54.326;10.074;2023-03-29T16:13:29;8.00;99.90
2465;DHT22;1244;54.326;10.074;2023-03-29T16:16:01;8.00;99.90
2465;DHT22;1244;54.326;10.074;2023-03-29T16:18:26;8.00;99.90
2465;DHT22;1244;54.326;10.074;2023-03-29T16:20:53;7.90;99.90
2465;DHT22;1244;54.326;10.074;2023-03-29T16:23:18;7.90;99.90
2465;DHT22;1244;54.326;10.074;2023-03-29T16:25:44;7.80;99.90
2465;DHT22;1244;54.326;10.074;2023-03-29T16:28:10;7.80;99.90
2465;DHT22;1244;54.326;10.074;2023-03-29T16:30:45;7.80;99.90
2465;DHT22;1244;54.326;10.074;2023-03-29T16:33:14;7.80;99.90
2465;DHT22;1244;54.326;10.074;2023-03-29T16:35:40;7.80;99.90
2465;DHT22;1244;54.326;10.074;2023-03-29T16:38:06;7.70;99.90
2465;DHT22;1244;54.326;10.074;2023-03-29T16:40:33;7.70;99.90
2465;DHT22;1244;54.326;10.074;2023-03-29T16:42:59;7.70;99.90
2465;DHT22;1244;54.326;10.074;2023-03-29T16:45:25;7.70;99.90
2465;DHT22;1244;54.326;10.074;2023-03-29T16:50:18;7.70;99.90
2465;DHT22;1244;54.326;10.074;2023-03-29T16:52:44;7.70;99.90
2465;DHT22;1244;54.326;10.074;2023-03-29T16:55:13;7.70;99.90
2465;DHT22;1244;54.326;10.074;2023-03-29T16:57:42;7.70;99.90
2465;DHT22;1244;54.326;10.074;2023-03-29T17:00:10;7.70;99.90
2465;DHT22;1244;54.326;10.074;2023-03-29T17:02:38;7.60;99.90
2465;DHT22;1244;54.326;10.074;2023-03-29T17:05:04;7.60;99.90
2465;DHT22;1244;54.326;10.074;2023-03-29T17:07:30;7.70;99.90
2465;DHT22;1244;54.326;10.074;2023-03-29T17:09:56;7.60;99.90
2465;DHT22;1244;54.326;10.074;2023-03-29T17:12:31;7.50;99.90
2465;DHT22;1244;54.326;10.074;2023-03-29T17:14:57;7.60;99.90
2465;DHT22;1244;54.326;10.074;2023-03-29T17:17:22;7.50;99.90
2465;DHT22;1244;54.326;10.074;2023-03-29T17:19:48;7.50;99.90
2465;DHT22;1244;54.326;10.074;2023-03-29T17:22:14;7.40;99.90
2465;DHT22;1244;54.326;10.074;2023-03-29T17:24:39;7.40;99.90
2465;DHT22;1244;54.326;10.074;2023-03-29T17:27:23;7.50;99.90
2465;DHT22;1244;54.326;10.074;2023-03-29T17:29:49;7.50;99.90
2465;DHT22;1244;54.326;10.074;2023-03-29T17:32:14;7.50;99.90
2465;DHT22;1244;54.326;10.074;2023-03-29T17:34:39;7.50;99.90
2465;DHT22;1244;54.326;10.074;2023-03-29T17:37:05;7.50;99.90
2465;DHT22;1244;54.326;10.074;2023-03-29T17:42:06;7.50;99.90
2465;DHT22;1244;54.326;10.074;2023-03-29T17:44:32;7.50;99.90
2465;DHT22;1244;54.326;10.074;2023-03-29T17:46:58;7.50;99.90
2465;DHT22;1244;54.326;10.074;2023-03-29T17:49:24;7.50;99.90
2465;DHT22;1244;54.326;10.074;2023-03-29T17:51:58;7.50;99.90
2465;DHT22;1244;54.326;10.074;2023-03-29T17:54:24;7.50;99.90
2465;DHT22;1244;54.326;10.074;2023-03-29T17:56:49;7.50;99.90
2465;DHT22;1244;54.326;10.074;2023-03-29T17:59:15;7.50;99.90
2465;DHT22;1244;54.326;10.074;2023-03-29T18:01:41;7.50;99.90
2465;DHT22;1244;54.326;10.074;2023-03-29T18:04:07;7.50;99.90
2465;DHT22;1244;54.326;10.074;2023-03-29T18:09:12;7.50;99.90
2465;DHT22;1244;54.326;10.074;2023-03-29T18:11:38;7.50;99.90
2465;DHT22;1244;54.326;10.074;2023-03-29T18:14:03;7.40;99.90
2465;DHT22;1244;54.326;10.074;2023-03-29T18:16:29;7.50;99.90
2465;DHT22;1244;54.326;10.074;2023-03-29T18:19:07;7.40;99.90
2465;DHT22;1244;54.326;10.074;2023-03-29T18:21:35;7.40;99.90
2465;DHT22;1244;54.326;10.074;2023-03-29T18:24:01;7.50;99.90
2465;DHT22;1244;54.326;10.074;2023-03-29T18:26:26;7.50;99.90
2465;DHT22;1244;54.326;10.074;2023-03-29T18:28:52;7.50;99.90
2465;DHT22;1244;54.326;10.074;2023-03-29T18:31:18;7.50;99.90
2465;DHT22;1244;54.326;10.074;2023-03-29T18:33:44;7.50;99.90
2465;DHT22;1244;54.326;10.074;2023-03-29T18:36:14;7.50;99.90
2465;DHT22;1244;54.326;10.074;2023-03-29T18:38:40;7.40;99.90
2465;DHT22;1244;54.326;10.074;2023-03-29T18:41:07;7.50;99.90
2465;DHT22;1244;54.326;10.074;2023-03-29T18:43:33;7.50;99.90
2465;DHT22;1244;54.326;10.074;2023-03-29T18:46:00;7.50;99.90
2465;DHT22;1244;54.326;10.074;2023-03-29T18:48:25;7.50;99.90
2465;DHT22;1244;54.326;10.074;2023-03-29T18:50:51;7.60;99.90
2465;DHT22;1244;54.326;10.074;2023-03-29T18:53:19;7.40;99.90
2465;DHT22;1244;54.326;10.074;2023-03-29T18:55:46;7.50;99.90